Time;durP1;ratioP1;P1;durP2;ratioP2;P2;SDS_P1;SDS_P2;PMS_P1;PMS_P2;Temp;Humidity;BMP_temperature;BMP_pressure;BME280_temperature;BME280_humidity;BME280_pressure;Samples;Min_cycle;Max_cycle;Signal;HPM_P1;HPM_P2
2023/04/01 00:01:28;;;;;;;5.90;2.87;;;10.10;99.90;;;;;;5087598;28;20559;-57
2023/04/01 00:03:56;;;;;;;6.00;3.30;;;10.00;99.90;;;;;;5093279;28;20195;-57
2023/04/01 00:06:23;;;;;;;4.80;3.30;;;10.10;99.90;;;;;;5071747;28;20584;-56
2023/04/01 00:08:51;;;;;;;4.17;3.30;;;10.10;99.90;;;;;;5095448;28;20318;-56
2023/04/01 00:11:18;;;;;;;3.83;3.23;;;10.10;99.90;;;;;;5091291;28;20566;-57
2023/04/01 00:13:47;;;;;;;5.23;3.30;;;10.00;99.90;;;;;;5090841;28;20204;-56
2023/04/01 00:16:14;;;;;;;4.00;3.43;;;10.10;99.90;;;;;;5089831;28;20207;-57
2023/04/01 00:18:49;;;;;;;3.57;3.20;;;10.10;99.90;;;;;;5093779;28;20436;-56
2023/04/01 00:21:17;;;;;;;4.63;3.23;;;10.10;99.90;;;;;;5088797;28;20206;-57
2023/04/01 00:23:44;;;;;;;5.03;3.30;;;10.10;99.90;;;;;;5080616;28;20684;-57
2023/04/01 00:26:12;;;;;;;5.93;3.30;;;10.10;99.90;;;;;;5088241;28;20219;-57
2023/04/01 00:28:41;;;;;;;7.97;3.63;;;10.10;99.90;;;;;;5093579;28;20200;-56
2023/04/01 00:31:09;;;;;;;3.67;3.30;;;10.10;99.90;;;;;;5091102;28;20252;-57
2023/04/01 00:33:37;;;;;;;5.73;3.67;;;10.10;99.90;;;;;;5094445;28;20209;-57
2023/04/01 00:36:09;;;;;;;4.80;4.13;;;10.10;99.90;;;;;;5093385;28;20210;-56
2023/04/01 00:38:37;;;;;;;3.87;3.47;;;10.10;99.90;;;;;;5075131;28;20192;-56
2023/04/01 00:41:05;;;;;;;5.87;4.40;;;10.10;99.90;;;;;;5093451;28;20627;-57
2023/04/01 00:43:33;;;;;;;5.77;4.00;;;10.10;99.90;;;;;;5093802;28;20233;-57
2023/04/01 00:46:00;;;;;;;4.40;3.80;;;10.10;99.90;;;;;;5091147;28;20230;-57
2023/04/01 00:48:34;;;;;;;5.07;4.07;;;10.10;99.90;;;;;;5074564;28;20308;-56
2023/04/01 00:51:07;;;;;;;4.20;3.50;;;10.10;99.90;;;;;;5092731;28;20204;-56
2023/04/01 00:53:40;;;;;;;4.77;3.80;;;10.10;99.90;;;;;;5090491;28;20675;-56
2023/04/01 00:56:11;;;;;;;5.10;3.50;;;10.10;99.90;;;;;;5090676;28;20297;-56
2023/04/01 00:58:43;;;;;;;4.20;3.57;;;10.10;99.90;;;;;;5093469;28;20275;-57
2023/04/01 01:01:10;;;;;;;4.77;3.53;;;10.20;99.90;;;;;;5075550;28;20203;-56
2023/04/01 01:03:37;;;;;;;6.30;3.37;;;10.20;99.90;;;;;;5070551;28;20201;-57
2023/04/01 01:06:21;;;;;;;4.37;3.57;;;10.20;99.90;;;;;;5092773;28;20612;-56
2023/04/01 01:09:07;;;;;;;4.20;3.20;;;10.20;99.90;;;;;;5095570;28;20219;-56
2023/04/01 01:12:03;;;;;;;6.03;3.10;;;10.20;99.90;;;;;;5093510;28;20206;-56
2023/04/01 01:15:00;;;;;;;3.00;2.67;;;10.20;99.90;;;;;;5090386;28;20208;-57
2023/04/01 01:17:55;;;;;;;3.30;2.40;;;10.20;99.90;;;;;;5098682;28;20374;-56
2023/04/01 01:20:37;;;;;;;4.40;2.90;;;10.20;99.90;;;;;;5096156;27;20592;-56
2023/04/01 01:23:31;;;;;;;3.80;2.73;;;10.20;99.90;;;;;;5095106;28;20203;-59
2023/04/01 01:26:01;;;;;;;3.10;2.27;;;10.20;99.90;;;;;;5096840;28;20278;-56
2023/04/01 01:28:52;;;;;;;3.77;2.47;;;10.20;99.90;;;;;;5087741;28;21071;-57
2023/04/01 01:31:25;;;;;;;1.83;1.20;;;10.20;99.90;;;;;;5099558;28;20201;-59
2023/04/01 01:34:15;;;;;;;1.50;0.90;;;10.10;99.90;;;;;;5097018;28;20206;-56
2023/04/01 01:36:45;;;;;;;4.10;1.20;;;10.00;99.90;;;;;;5098525;28;20219;-57
2023/04/01 01:39:13;;;;;;;2.30;1.53;;;10.00;99.90;;;;;;5091565;28;20644;-56
2023/04/01 01:41:43;;;;;;;3.03;1.90;;;10.00;99.90;;;;;;5096971;28;20308;-58
2023/04/01 01:44:12;;;;;;;2.43;2.17;;;10.00;99.90;;;;;;5091466;28;20232;-57
2023/04/01 01:46:41;;;;;;;3.17;2.87;;;10.00;99.90;;;;;;5078018;28;20208;-57
2023/04/01 01:49:11;;;;;;;3.37;2.23;;;10.00;99.90;;;;;;5078664;28;20229;-57
2023/04/01 01:51:39;;;;;;;3.43;1.77;;;10.00;99.90;;;;;;5079848;28;20745;-57
2023/04/01 01:54:06;;;;;;;1.60;1.40;;;9.90;99.90;;;;;;5095634;28;20660;-56
2023/04/01 01:56:35;;;;;;;2.00;1.67;;;9.90;99.90;;;;;;5094402;28;20274;-57
2023/04/01 01:59:06;;;;;;;3.20;1.90;;;9.90;99.90;;;;;;5092207;28;20633;-56
2023/04/01 02:01:37;;;;;;;3.53;1.50;;;9.90;99.90;;;;;;5097282;28;20605;-59
2023/04/01 02:04:04;;;;;;;2.47;1.63;;;9.90;99.90;;;;;;5092328;28;20193;-57
2023/04/01 02:06:37;;;;;;;2.10;1.60;;;9.90;99.90;;;;;;5099676;28;20284;-57
2023/04/01 02:09:07;;;;;;;1.57;1.40;;;9.80;99.90;;;;;;5094337;28;20200;-57
2023/04/01 02:11:46;;;;;;;1.80;1.40;;;9.80;99.90;;;;;;5097541;28;20264;-56
2023/04/01 02:14:15;;;;;;;1.67;1.23;;;9.80;99.90;;;;;;5091283;28;20210;-57
2023/04/01 02:17:03;;;;;;;1.33;1.23;;;9.80;99.90;;;;;;5096535;28;20875;-56
2023/04/01 02:19:38;;;;;;;1.57;1.33;;;9.80;99.90;;;;;;5089744;28;21260;-57
2023/04/01 02:22:11;;;;;;;3.30;1.60;;;9.80;99.90;;;;;;5094902;28;20224;-57
2023/04/01 02:24:39;;;;;;;2.53;1.53;;;9.80;99.90;;;;;;5091823;28;20542;-57
2023/04/01 02:27:07;;;;;;;2.73;1.70;;;9.80;99.90;;;;;;5066262;28;20203;-56
2023/04/01 02:29:34;;;;;;;3.00;2.00;;;9.80;99.90;;;;;;5094426;28;20208;-57
2023/04/01 02:32:02;;;;;;;4.53;2.10;;;9.80;99.90;;;;;;5094935;28;20224;-56
2023/04/01 02:34:29;;;;;;;3.27;2.20;;;9.70;99.90;;;;;;5089705;28;20311;-57
2023/04/01 02:36:57;;;;;;;3.50;1.97;;;9.70;99.90;;;;;;5091931;28;20281;-56
2023/04/01 02:39:26;;;;;;;2.00;1.80;;;9.70;99.90;;;;;;5094708;28;20203;-57
2023/04/01 02:41:53;;;;;;;2.53;1.83;;;9.70;99.90;;;;;;5095006;28;20190;-57
2023/04/01 02:44:20;;;;;;;4.73;1.97;;;9.70;99.90;;;;;;5092295;28;20201;-56
2023/04/01 02:46:47;;;;;;;3.17;2.10;;;9.70;99.90;;;;;;5087259;28;20296;-57
2023/04/01 02:49:14;;;;;;;5.13;2.07;;;9.70;99.90;;;;;;5096054;28;20574;-57
2023/04/01 02:51:41;;;;;;;5.60;1.80;;;9.70;99.90;;;;;;5097302;28;20572;-56
2023/04/01 02:54:08;;;;;;;1.90;1.43;;;9.60;99.90;;;;;;5094609;28;20256;-57
2023/04/01 02:56:34;;;;;;;2.20;1.50;;;9.70;99.90;;;;;;5095983;28;20299;-56
2023/04/01 02:59:01;;;;;;;1.87;1.60;;;9.60;99.90;;;;;;5080642;28;20282;-57
2023/04/01 03:01:28;;;;;;;2.13;1.90;;;9.70;99.90;;;;;;5094849;28;20250;-56
2023/04/01 03:03:55;;;;;;;5.40;2.10;;;9.70;99.90;;;;;;5093510;28;20650;-57
2023/04/01 03:06:22;;;;;;;4.30;2.40;;;9.70;99.90;;;;;;5096426;28;20289;-57
2023/04/01 03:08:49;;;;;;;3.43;1.83;;;9.70;99.90;;;;;;5094715;28;20653;-57
2023/04/01 03:11:16;;;;;;;3.27;2.20;;;9.60;99.90;;;;;;5097008;28;20207;-56
2023/04/01 03:13:43;;;;;;;2.43;2.20;;;9.60;99.90;;;;;;5085936;28;20195;-56
2023/04/01 03:16:10;;;;;;;3.37;1.97;;;9.60;99.90;;;;;;5076426;28;20576;-56
2023/04/01 03:18:37;;;;;;;2.37;1.50;;;9.60;99.90;;;;;;5083151;28;20344;-57
2023/04/01 03:21:15;;;;;;;3.30;1.83;;;9.60;99.90;;;;;;5093397;28;20206;-57
2023/04/01 03:23:42;;;;;;;2.20;1.63;;;9.70;99.90;;;;;;5094216;28;20255;-57
2023/04/01 03:26:09;;;;;;;3.30;1.67;;;9.60;99.90;;;;;;5089923;28;20252;-56
2023/04/01 03:28:36;;;;;;;3.07;2.03;;;9.60;99.90;;;;;;5095179;28;20225;-56
2023/04/01 03:31:03;;;;;;;3.57;1.63;;;9.60;99.90;;;;;;5095873;28;20250;-57
2023/04/01 03:33:31;;;;;;;2.60;2.00;;;9.60;99.90;;;;;;5092405;28;20245;-56
2023/04/01 03:35:58;;;;;;;3.50;2.10;;;9.60;99.90;;;;;;5096193;28;20233;-56
2023/04/01 03:38:25;;;;;;;6.10;2.40;;;9.60;99.90;;;;;;5095667;28;20275;-57
2023/04/01 03:40:51;;;;;;;5.93;2.73;;;9.60;99.90;;;;;;5095250;28;20207;-57
2023/04/01 03:43:18;;;;;;;4.77;2.47;;;9.60;99.90;;;;;;5095918;28;20194;-60
2023/04/01 03:45:47;;;;;;;3.03;2.40;;;9.60;99.90;;;;;;5078304;28;20207;-57
2023/04/01 03:48:15;;;;;;;4.20;2.53;;;9.50;99.90;;;;;;5094470;28;20473;-57
2023/04/01 03:50:42;;;;;;;7.53;2.77;;;9.50;99.90;;;;;;5095608;28;21790;-57
2023/04/01 03:53:09;;;;;;;4.57;2.50;;;9.60;99.90;;;;;;5080424;28;20312;-57
2023/04/01 03:55:36;;;;;;;3.43;2.50;;;9.50;99.90;;;;;;5084901;28;20213;-59
2023/04/01 03:58:05;;;;;;;3.17;2.50;;;9.50;99.90;;;;;;5093755;28;20309;-57
2023/04/01 04:00:32;;;;;;;5.13;2.87;;;9.40;99.90;;;;;;5094295;28;20811;-57
2023/04/01 04:03:00;;;;;;;3.93;2.47;;;9.60;99.90;;;;;;5093768;28;20208;-57
2023/04/01 04:05:27;;;;;;;3.87;2.10;;;9.50;99.90;;;;;;5096509;28;21095;-56
2023/04/01 04:07:54;;;;;;;3.20;2.20;;;9.50;99.90;;;;;;5098854;28;20202;-56
2023/04/01 04:10:23;;;;;;;2.40;1.83;;;9.50;99.90;;;;;;5097715;28;20404;-57
2023/04/01 04:12:50;;;;;;;3.87;1.70;;;9.50;99.90;;;;;;5095709;28;20283;-56
2023/04/01 04:15:17;;;;;;;2.87;1.93;;;9.60;99.90;;;;;;5091679;28;20545;-57
2023/04/01 04:17:45;;;;;;;3.63;1.90;;;9.50;99.90;;;;;;5092824;28;20234;-57
2023/04/01 04:20:12;;;;;;;2.70;1.87;;;9.40;99.90;;;;;;5093323;28;20192;-57
2023/04/01 04:22:39;;;;;;;3.23;1.87;;;9.50;99.90;;;;;;5091615;28;20239;-62
2023/04/01 04:25:07;;;;;;;2.27;1.97;;;9.50;99.90;;;;;;5086916;28;20201;-57
2023/04/01 04:27:35;;;;;;;1.67;1.57;;;9.40;99.90;;;;;;5090806;28;20209;-56
2023/04/01 04:30:02;;;;;;;4.77;2.20;;;9.50;99.90;;;;;;5074940;28;20230;-57
2023/04/01 04:32:30;;;;;;;5.93;2.03;;;9.40;99.90;;;;;;5094356;28;20619;-56
2023/04/01 04:34:57;;;;;;;1.93;1.60;;;9.40;99.90;;;;;;5094690;28;20200;-57
2023/04/01 04:37:25;;;;;;;2.90;2.10;;;9.40;99.90;;;;;;5094546;28;20687;-57
2023/04/01 04:39:52;;;;;;;4.27;2.23;;;9.40;99.90;;;;;;5094924;28;20655;-58
2023/04/01 04:42:19;;;;;;;3.57;2.60;;;9.50;99.90;;;;;;5094228;28;20257;-56
2023/04/01 04:44:46;;;;;;;2.57;2.20;;;9.50;99.90;;;;;;5093457;28;20205;-57
2023/04/01 04:47:13;;;;;;;4.17;2.60;;;9.50;99.90;;;;;;5095146;28;20287;-57
2023/04/01 04:49:40;;;;;;;3.53;2.70;;;9.60;99.90;;;;;;5092812;28;20657;-56
2023/04/01 04:52:07;;;;;;;4.70;3.30;;;9.50;99.90;;;;;;5097842;28;20202;-57
2023/04/01 04:54:34;;;;;;;5.83;3.73;;;9.50;99.90;;;;;;5096634;28;20206;-57
2023/04/01 04:57:02;;;;;;;5.97;3.87;;;9.60;99.90;;;;;;5098825;28;20233;-56
2023/04/01 04:59:30;;;;;;;6.40;4.37;;;9.60;99.90;;;;;;5098669;28;20650;-56
2023/04/01 05:01:57;;;;;;;6.77;4.73;;;9.70;99.90;;;;;;5099908;28;20255;-57
2023/04/01 05:04:23;;;;;;;8.47;4.77;;;9.60;99.90;;;;;;5096914;28;20201;-57
2023/04/01 05:06:51;;;;;;;5.90;4.80;;;9.70;99.90;;;;;;5097953;28;20315;-56
2023/04/01 05:09:18;;;;;;;9.10;5.53;;;9.70;99.90;;;;;;5097618;28;20632;-57
2023/04/01 05:11:45;;;;;;;6.07;5.07;;;9.70;99.90;;;;;;5098231;28;20263;-57
2023/04/01 05:14:15;;;;;;;8.83;5.60;;;9.70;99.90;;;;;;5077655;28;20217;-56
2023/04/01 05:16:42;;;;;;;6.97;5.37;;;9.70;99.90;;;;;;5087915;28;20263;-57
2023/04/01 05:19:09;;;;;;;8.70;5.37;;;9.80;99.90;;;;;;5095525;28;20224;-56
2023/04/01 05:21:36;;;;;;;7.47;5.70;;;9.80;99.90;;;;;;5098985;28;20197;-58
2023/04/01 05:24:06;;;;;;;7.37;5.43;;;9.80;99.90;;;;;;5096283;28;20280;-57
2023/04/01 05:26:33;;;;;;;7.40;5.93;;;9.80;99.90;;;;;;5096949;28;20200;-57
2023/04/01 05:29:00;;;;;;;8.10;5.97;;;9.80;99.90;;;;;;5077422;28;21867;-57
2023/04/01 05:31:27;;;;;;;8.77;6.17;;;9.80;99.90;;;;;;5096957;28;20215;-57
2023/04/01 05:33:55;;;;;;;8.30;5.80;;;9.90;99.90;;;;;;5098686;28;20201;-57
2023/04/01 05:36:22;;;;;;;7.53;6.17;;;9.80;99.90;;;;;;5094557;28;20227;-60
2023/04/01 05:38:50;;;;;;;10.70;6.27;;;9.90;99.90;;;;;;5096568;28;20708;-57
2023/04/01 05:41:17;;;;;;;11.07;7.03;;;10.00;99.90;;;;;;5097339;28;20235;-57
2023/04/01 05:43:44;;;;;;;11.80;7.20;;;10.00;99.90;;;;;;5077170;28;20705;-57
2023/04/01 05:46:11;;;;;;;11.70;7.53;;;10.00;99.90;;;;;;5095123;28;20195;-58
2023/04/01 05:48:38;;;;;;;13.00;8.47;;;10.00;99.90;;;;;;5095646;28;20231;-57
2023/04/01 05:51:05;;;;;;;12.23;7.93;;;10.00;99.90;;;;;;5098922;28;20596;-57
2023/04/01 05:53:32;;;;;;;12.77;7.90;;;10.10;99.90;;;;;;5084590;28;20657;-56
2023/04/01 05:56:03;;;;;;;12.70;8.67;;;10.10;99.90;;;;;;5095758;28;20197;-57
2023/04/01 05:58:30;;;;;;;13.00;8.30;;;10.10;99.90;;;;;;5093076;28;20615;-57
2023/04/01 06:01:06;;;;;;;12.40;7.77;;;10.20;99.90;;;;;;5092178;28;20209;-60
2023/04/01 06:03:39;;;;;;;12.50;7.10;;;10.20;99.90;;;;;;5093979;28;20593;-56
2023/04/01 06:06:23;;;;;;;11.83;7.23;;;10.10;99.90;;;;;;5077814;28;20632;-57
2023/04/01 06:08:50;;;;;;;13.17;7.33;;;10.10;99.90;;;;;;5095688;28;20275;-56
2023/04/01 06:11:55;;;;;;;11.37;6.40;;;10.10;99.90;;;;;;5096901;28;20588;-56
2023/04/01 06:14:40;;;;;;;11.47;6.93;;;10.20;99.90;;;;;;5063332;28;20218;-56
2023/04/01 06:17:22;;;;;;;10.77;6.97;;;10.20;99.90;;;;;;5093953;28;20672;-56
2023/04/01 06:20:07;;;;;;;15.23;7.30;;;10.20;99.90;;;;;;5093498;28;20284;-59
2023/04/01 06:22:46;;;;;;;12.47;6.73;;;10.20;99.90;;;;;;5099544;28;20194;-57
2023/04/01 06:25:40;;;;;;;13.23;6.67;;;10.10;99.90;;;;;;5096821;28;20614;-57
2023/04/01 06:28:35;;;;;;;12.67;6.57;;;10.10;99.90;;;;;;5094864;28;20242;-57
2023/04/01 06:31:26;;;;;;;14.03;7.13;;;10.10;99.90;;;;;;5095090;28;20230;-56
2023/04/01 06:34:08;;;;;;;12.87;7.17;;;10.20;99.90;;;;;;5083343;28;20208;-56
2023/04/01 06:37:00;;;;;;;14.67;7.70;;;10.30;99.90;;;;;;5096570;28;20201;-58
2023/04/01 06:40:09;;;;;;;13.73;7.73;;;10.20;99.90;;;;;;5095474;28;20204;-61
2023/04/01 06:42:50;;;;;;;15.43;8.73;;;10.20;99.90;;;;;;5053542;28;20752;-59
2023/04/01 06:45:43;;;;;;;16.63;8.50;;;10.10;99.90;;;;;;5079416;28;20251;-57
2023/04/01 06:48:35;;;;;;;14.23;8.07;;;10.10;99.90;;;;;;5075943;28;20227;-57
2023/04/01 06:51:18;;;;;;;14.77;7.90;;;10.20;99.90;;;;;;5064041;28;20206;-56
2023/04/01 06:54:06;;;;;;;20.67;8.37;;;10.20;99.90;;;;;;4731023;28;10000097;-61
2023/04/01 06:56:35;;;;;;;15.77;7.73;;;10.30;99.90;;;;;;5083302;28;20559;-56
2023/04/01 06:59:20;;;;;;;16.07;8.63;;;10.20;99.90;;;;;;5090122;27;20233;-56
2023/04/01 07:02:12;;;;;;;16.37;8.63;;;10.20;99.90;;;;;;5097543;28;20195;-56
2023/04/01 07:04:44;;;;;;;16.03;8.33;;;10.30;99.90;;;;;;5090619;28;20224;-57
2023/04/01 07:07:34;;;;;;;15.80;6.83;;;10.30;99.90;;;;;;5086617;28;20544;-56
2023/04/01 07:10:09;;;;;;;12.27;7.10;;;10.20;99.90;;;;;;5077442;28;20267;-56
2023/04/01 07:12:48;;;;;;;15.80;7.77;;;10.20;99.90;;;;;;5091339;28;21264;-56
2023/04/01 07:15:20;;;;;;;11.93;6.97;;;10.20;99.90;;;;;;5089733;28;20252;-56
2023/04/01 07:17:55;;;;;;;12.77;6.83;;;10.20;99.90;;;;;;5076248;28;20242;-57
2023/04/01 07:20:27;;;;;;;12.87;7.37;;;10.20;99.90;;;;;;5093948;28;20738;-56
2023/04/01 07:23:01;;;;;;;13.07;7.53;;;10.30;99.90;;;;;;5093282;28;20357;-56
2023/04/01 07:25:36;;;;;;;13.10;6.77;;;10.30;99.90;;;;;;5093201;28;20229;-56
2023/04/01 07:28:16;;;;;;;15.07;7.07;;;10.30;99.90;;;;;;5074443;27;20233;-56
2023/04/01 07:31:21;;;;;;;12.63;6.27;;;10.30;99.90;;;;;;5079529;28;20206;-56
2023/04/01 07:34:43;;;;;;;8.00;5.27;;;10.30;99.90;;;;;;5084467;28;20885;-57
2023/04/01 07:37:25;;;;;;;9.47;5.97;;;10.30;99.90;;;;;;5075248;28;20217;-57
2023/04/01 07:39:57;;;;;;;14.40;6.10;;;10.30;99.90;;;;;;5087795;28;20201;-56
2023/04/01 07:42:37;;;;;;;12.50;6.37;;;10.40;99.90;;;;;;5073706;28;20197;-56
2023/04/01 07:45:16;;;;;;;12.53;6.60;;;10.40;99.90;;;;;;5088701;28;20320;-56
2023/04/01 07:47:58;;;;;;;10.93;6.53;;;10.40;99.90;;;;;;5089923;28;20256;-56
2023/04/01 07:50:40;;;;;;;10.43;6.73;;;10.40;99.90;;;;;;5087645;28;20987;-56
2023/04/01 07:53:15;;;;;;;10.53;6.77;;;10.40;99.90;;;;;;5084353;28;20289;-56
2023/04/01 07:56:01;;;;;;;14.00;7.30;;;10.40;99.90;;;;;;5077376;28;20903;-57
2023/04/01 07:58:46;;;;;;;12.53;7.27;;;10.40;99.90;;;;;;5086519;28;20240;-59
2023/04/01 08:01:29;;;;;;;17.30;8.93;;;10.50;99.90;;;;;;5088433;28;20910;-57
2023/04/01 08:04:28;;;;;;;19.80;9.30;;;10.50;99.90;;;;;;5087891;28;20741;-56
2023/04/01 08:07:06;;;;;;;12.43;7.80;;;10.40;99.90;;;;;;5055257;28;20208;-57
2023/04/01 08:10:02;;;;;;;15.50;8.83;;;10.40;99.90;;;;;;5090901;28;20205;-57
2023/04/01 08:13:02;;;;;;;13.90;8.77;;;10.30;99.90;;;;;;5085842;28;20627;-57
2023/04/01 08:15:55;;;;;;;15.73;8.13;;;10.40;99.90;;;;;;5087625;28;20260;-57
2023/04/01 08:18:37;;;;;;;16.97;8.67;;;10.40;99.90;;;;;;5087842;28;20248;-56
2023/04/01 08:21:20;;;;;;;12.17;8.07;;;10.40;99.90;;;;;;5087096;28;20288;-56
2023/04/01 08:23:51;;;;;;;13.80;8.37;;;10.50;99.90;;;;;;5070232;28;20283;-56
2023/04/01 08:26:21;;;;;;;15.10;8.90;;;10.50;99.90;;;;;;5087178;28;20214;-57
2023/04/01 08:29:22;;;;;;;15.20;8.77;;;10.50;99.90;;;;;;5091209;28;20208;-56
2023/04/01 08:31:55;;;;;;;12.77;8.57;;;10.50;99.90;;;;;;5093012;28;20551;-56
2023/04/01 08:34:36;;;;;;;15.00;8.90;;;10.50;99.90;;;;;;5088450;28;20760;-56
2023/04/01 08:37:12;;;;;;;13.70;8.43;;;10.60;99.90;;;;;;5087596;28;20249;-56
2023/04/01 08:39:51;;;;;;;13.73;9.27;;;10.50;99.90;;;;;;5088566;28;20328;-56
2023/04/01 08:42:44;;;;;;;12.17;8.23;;;10.50;99.90;;;;;;5081737;28;22717;-56
2023/04/01 08:45:18;;;;;;;12.97;7.40;;;10.60;99.90;;;;;;5095872;27;20201;-56
2023/04/01 08:48:08;;;;;;;16.87;8.20;;;10.50;99.90;;;;;;5081572;28;20201;-56
2023/04/01 08:51:08;;;;;;;13.03;8.33;;;10.60;99.90;;;;;;5079828;28;20205;-58
2023/04/01 08:54:01;;;;;;;11.50;8.00;;;10.70;99.90;;;;;;5095736;28;21474;-56
2023/04/01 08:57:20;;;;;;;12.43;7.33;;;10.60;99.90;;;;;;5091901;28;20298;-56
2023/04/01 08:59:58;;;;;;;10.77;7.20;;;10.60;99.90;;;;;;5013909;28;20235;-56
2023/04/01 09:03:00;;;;;;;14.03;7.57;;;10.60;99.90;;;;;;5017363;28;20267;-59
2023/04/01 09:06:12;;;;;;;11.03;6.53;;;10.60;99.90;;;;;;4993987;28;20215;-56
2023/04/01 09:08:54;;;;;;;11.80;7.03;;;10.60;99.90;;;;;;5011989;28;20276;-57
2023/04/01 09:11:57;;;;;;;13.07;6.83;;;10.60;99.90;;;;;;4999567;28;20311;-57
2023/04/01 09:14:58;;;;;;;11.77;6.57;;;10.70;99.90;;;;;;5011509;28;20229;-59
2023/04/01 09:17:30;;;;;;;9.60;6.50;;;10.60;99.90;;;;;;5011715;28;20201;-56
2023/04/01 09:20:14;;;;;;;10.17;6.87;;;10.70;99.90;;;;;;5013316;28;20205;-56
2023/04/01 09:23:09;;;;;;;10.03;6.40;;;10.60;99.90;;;;;;5016881;28;20223;-57
2023/04/01 09:25:51;;;;;;;8.73;6.47;;;10.70;99.90;;;;;;4974799;28;20202;-57
2023/04/01 09:28:19;;;;;;;11.27;6.23;;;10.70;99.90;;;;;;4996838;28;20706;-57
2023/04/01 09:31:04;;;;;;;9.53;5.67;;;10.60;99.90;;;;;;5008425;28;20212;-56
2023/04/01 09:33:43;;;;;;;9.60;6.57;;;10.70;99.90;;;;;;5039147;28;20669;-56
2023/04/01 09:36:15;;;;;;;11.40;6.10;;;10.70;99.90;;;;;;5095537;28;20197;-56
2023/04/01 09:39:12;;;;;;;10.47;6.10;;;10.70;99.90;;;;;;5095368;27;20221;-56
2023/04/01 09:41:57;;;;;;;9.43;5.90;;;10.80;99.90;;;;;;5089191;28;20572;-56
2023/04/01 09:45:05;;;;;;;9.73;6.33;;;10.80;99.90;;;;;;5092049;28;20210;-56
2023/04/01 09:47:44;;;;;;;12.27;5.87;;;10.80;99.90;;;;;;5079169;28;20216;-57
2023/04/01 09:50:20;;;;;;;8.57;5.83;;;10.90;99.90;;;;;;5074599;28;20204;-57
2023/04/01 09:53:14;;;;;;;8.30;5.33;;;10.80;99.90;;;;;;5084458;27;20206;-57
2023/04/01 09:56:04;;;;;;;9.13;5.07;;;10.90;99.90;;;;;;5092679;28;20222;-57
2023/04/01 09:58:40;;;;;;;9.27;4.97;;;10.90;99.90;;;;;;5091122;27;20321;-58
2023/04/01 10:01:44;;;;;;;7.27;5.03;;;10.90;99.90;;;;;;5088676;28;20201;-58
2023/04/01 10:04:33;;;;;;;6.87;4.43;;;10.90;99.90;;;;;;5090987;28;20514;-58
2023/04/01 10:07:28;;;;;;;7.17;4.57;;;10.90;99.90;;;;;;5090053;28;20353;-57
2023/04/01 10:09:57;;;;;;;5.77;4.40;;;10.90;99.90;;;;;;5092391;27;20213;-57
2023/04/01 10:13:02;;;;;;;5.67;4.60;;;10.90;99.90;;;;;;5087369;27;20590;-57
2023/04/01 10:15:35;;;;;;;6.23;4.37;;;11.00;99.90;;;;;;5090684;28;20837;-57
2023/04/01 10:18:34;;;;;;;6.03;4.17;;;11.00;99.90;;;;;;5093837;28;20223;-56
2023/04/01 10:21:07;;;;;;;6.93;4.57;;;11.00;99.90;;;;;;5089134;27;20360;-57
2023/04/01 10:23:45;;;;;;;9.00;4.97;;;11.10;99.90;;;;;;5095719;28;20216;-61
2023/04/01 10:26:30;;;;;;;7.20;4.53;;;11.10;99.90;;;;;;5094314;28;20253;-57
2023/04/01 10:29:19;;;;;;;6.80;4.63;;;11.10;99.90;;;;;;5097487;28;20194;-56
2023/04/01 10:32:23;;;;;;;5.97;4.33;;;11.10;99.90;;;;;;5095576;28;20286;-57
2023/04/01 10:35:28;;;;;;;7.30;4.60;;;11.00;99.90;;;;;;5052503;28;20291;-56
2023/04/01 10:38:56;;;;;;;7.77;5.37;;;11.20;99.90;;;;;;5082854;28;20802;-56
2023/04/01 10:41:28;;;;;;;8.87;5.07;;;11.20;99.90;;;;;;5069192;28;20198;-56
2023/04/01 10:44:25;;;;;;;8.33;4.67;;;11.20;99.90;;;;;;5088086;28;20221;-57
2023/04/01 10:47:13;;;;;;;6.67;4.43;;;11.20;99.90;;;;;;5090047;28;20210;-56
2023/04/01 10:50:08;;;;;;;8.07;4.73;;;11.20;99.90;;;;;;5087581;28;20214;-56
2023/04/01 10:52:41;;;;;;;8.30;4.90;;;11.20;99.90;;;;;;5087347;28;20211;-58
2023/04/01 10:55:32;;;;;;;8.77;5.20;;;11.10;99.90;;;;;;5093488;28;20213;-56
2023/04/01 10:58:37;;;;;;;7.77;5.40;;;11.10;99.90;;;;;;5085049;28;20243;-57
2023/04/01 11:01:26;;;;;;;8.77;5.20;;;11.10;99.90;;;;;;5090864;28;20221;-56
2023/04/01 11:04:30;;;;;;;7.93;5.17;;;11.20;99.90;;;;;;5089844;28;20294;-56
2023/04/01 11:07:35;;;;;;;7.53;5.23;;;11.40;99.90;;;;;;5088448;28;20728;-60
2023/04/01 11:10:08;;;;;;;7.03;5.00;;;11.20;99.90;;;;;;5070728;28;20227;-59
2023/04/01 11:13:02;;;;;;;7.47;5.53;;;11.20;99.90;;;;;;5084925;28;20569;-60
2023/04/01 11:15:41;;;;;;;8.70;4.77;;;11.20;99.90;;;;;;5069604;28;20206;-60
2023/04/01 11:18:36;;;;;;;7.03;4.80;;;11.30;99.90;;;;;;5075029;28;20233;-60
2023/04/01 11:21:30;;;;;;;8.73;4.87;;;11.40;99.90;;;;;;5088369;28;20676;-60
2023/04/01 11:24:21;;;;;;;8.10;4.77;;;11.30;99.90;;;;;;5090802;28;20210;-59
2023/04/01 11:27:10;;;;;;;9.27;4.70;;;11.40;99.90;;;;;;5089988;28;20204;-60
2023/04/01 11:30:02;;;;;;;7.37;4.73;;;11.40;99.90;;;;;;5092591;27;20236;-63
2023/04/01 11:32:46;;;;;;;7.67;4.50;;;11.50;99.90;;;;;;5091936;28;20242;-61
2023/04/01 11:35:35;;;;;;;5.93;3.40;;;11.50;99.90;;;;;;5084661;28;20297;-63
2023/04/01 11:38:17;;;;;;;4.53;2.90;;;11.50;99.90;;;;;;5085254;28;20650;-60
2023/04/01 11:41:02;;;;;;;3.00;2.70;;;11.40;99.90;;;;;;5082973;28;20215;-60
2023/04/01 11:43:46;;;;;;;4.03;3.10;;;11.40;99.90;;;;;;5088184;28;21063;-61
2023/04/01 11:46:35;;;;;;;4.43;2.87;;;11.40;99.90;;;;;;5072140;28;20229;-60
2023/04/01 11:49:18;;;;;;;3.67;2.60;;;11.30;99.90;;;;;;5088145;28;20289;-60
2023/04/01 11:52:05;;;;;;;5.43;2.67;;;11.20;99.90;;;;;;5088399;28;20214;-60
2023/04/01 11:54:53;;;;;;;5.03;2.73;;;11.30;99.90;;;;;;5084932;28;20217;-61
2023/04/01 11:57:45;;;;;;;3.93;2.57;;;11.30;99.90;;;;;;5077910;28;20320;-61
2023/04/01 12:00:40;;;;;;;3.23;2.50;;;11.30;99.90;;;;;;5083263;27;20213;-61
2023/04/01 12:03:56;;;;;;;4.33;2.70;;;11.40;99.90;;;;;;5089660;28;20304;-60
2023/04/01 12:06:48;;;;;;;4.07;2.40;;;11.30;99.90;;;;;;5066106;28;20231;-61
2023/04/01 12:09:32;;;;;;;4.00;2.77;;;11.40;99.90;;;;;;5089086;28;20206;-62
2023/04/01 12:12:23;;;;;;;5.10;2.97;;;11.40;99.90;;;;;;5092892;28;20344;-61
2023/04/01 12:15:02;;;;;;;3.97;2.90;;;11.40;99.90;;;;;;5088532;28;20236;-61
2023/04/01 12:17:48;;;;;;;4.23;3.33;;;11.40;99.90;;;;;;5065781;28;20209;-61
2023/04/01 12:21:00;;;;;;;3.20;2.90;;;11.40;99.90;;;;;;5081029;28;20216;-60
2023/04/01 12:23:47;;;;;;;4.27;3.20;;;11.50;99.90;;;;;;5081928;28;20195;-60
2023/04/01 12:26:27;;;;;;;4.30;3.27;;;11.50;99.90;;;;;;5090429;28;20279;-60
2023/04/01 12:29:14;;;;;;;3.63;3.03;;;11.40;99.90;;;;;;5094118;28;20376;-60
2023/04/01 12:32:23;;;;;;;5.43;3.50;;;11.50;99.90;;;;;;5077039;28;20203;-62
2023/04/01 12:35:13;;;;;;;4.53;3.13;;;11.60;99.90;;;;;;5089738;28;20264;-60
2023/04/01 12:37:55;;;;;;;6.70;3.40;;;11.60;99.90;;;;;;5080982;28;20310;-60
2023/04/01 12:40:56;;;;;;;4.80;2.90;;;11.50;99.90;;;;;;5093928;28;20228;-60
2023/04/01 12:43:32;;;;;;;4.60;3.30;;;11.40;99.90;;;;;;5081722;28;20206;-60
2023/04/01 12:46:40;;;;;;;5.10;3.13;;;11.50;99.90;;;;;;5093221;28;20219;-60
2023/04/01 12:49:26;;;;;;;3.83;2.63;;;11.30;99.90;;;;;;5092017;28;20219;-60
2023/04/01 12:52:25;;;;;;;5.53;2.93;;;11.30;99.90;;;;;;5093851;28;20207;-60
2023/04/01 12:54:52;;;;;;;3.73;3.03;;;11.30;99.90;;;;;;5089741;28;20251;-60
2023/04/01 12:57:43;;;;;;;3.47;2.90;;;11.30;99.90;;;;;;5072339;28;20217;-60
2023/04/01 13:00:39;;;;;;;3.53;2.90;;;11.40;99.90;;;;;;5087982;28;20330;-59
2023/04/01 13:03:17;;;;;;;5.87;3.10;;;11.30;99.90;;;;;;5074127;28;20887;-60
2023/04/01 13:05:55;;;;;;;3.43;2.20;;;11.30;99.90;;;;;;5090103;28;20573;-60
2023/04/01 13:08:22;;;;;;;2.90;2.60;;;11.20;99.90;;;;;;5072512;28;20198;-61
2023/04/01 13:11:02;;;;;;;3.47;2.33;;;11.30;99.90;;;;;;5093730;28;20271;-60
2023/04/01 13:14:12;;;;;;;2.90;2.40;;;11.20;99.90;;;;;;5072772;28;20209;-59
2023/04/01 13:17:16;;;;;;;4.70;3.00;;;11.10;99.90;;;;;;5080076;28;20293;-59
2023/04/01 13:20:04;;;;;;;3.87;3.33;;;11.30;99.90;;;;;;5089951;28;20323;-59
2023/04/01 13:22:37;;;;;;;3.67;2.83;;;11.30;99.90;;;;;;5095111;28;20269;-60
2023/04/01 13:25:42;;;;;;;6.10;3.47;;;11.40;99.90;;;;;;5087172;27;20234;-59
2023/04/01 13:28:21;;;;;;;5.50;3.53;;;11.20;99.90;;;;;;5069347;28;20193;-60
2023/04/01 13:31:19;;;;;;;7.27;4.70;;;11.20;99.90;;;;;;5090643;28;20281;-61
2023/04/01 13:34:04;;;;;;;7.30;4.03;;;11.20;99.90;;;;;;5088587;28;20296;-59
2023/04/01 13:37:03;;;;;;;8.90;3.93;;;11.30;99.90;;;;;;5071350;28;20191;-61
2023/04/01 13:39:51;;;;;;;6.70;4.17;;;11.30;99.90;;;;;;5051876;28;20231;-61
2023/04/01 13:42:31;;;;;;;7.33;4.23;;;11.40;99.90;;;;;;5092159;28;20226;-60
2023/04/01 13:45:23;;;;;;;8.67;4.90;;;11.40;99.90;;;;;;5087389;28;20303;-62
2023/04/01 13:48:11;;;;;;;6.93;4.13;;;11.30;99.90;;;;;;5092283;28;20209;-59
2023/04/01 13:51:12;;;;;;;4.77;3.93;;;11.30;99.90;;;;;;5091940;28;20208;-59